Time;durP1;ratioP1;P1;durP2;ratioP2;P2;SDS_P1;SDS_P2;PMS_P1;PMS_P2;Temp;Humidity;BMP_temperature;BMP_pressure;BME280_temperature;BME280_humidity;BME280_pressure;Samples;Min_cycle;Max_cycle;Signal;HPM_P1;HPM_P2
2024/03/13 00:00:39;;;;;;;23.03;15.87;;;;;;;;;;4352730;32;319615;-70
2024/03/13 00:03:06;;;;;;;25.43;16.43;;;;;;;;;;4340517;32;319156;-70
2024/03/13 00:05:33;;;;;;;24.90;17.20;;;;;;;;;;4349325;32;319264;-70
2024/03/13 00:08:01;;;;;;;19.80;14.53;;;;;;;;;;4351893;32;319336;-70
2024/03/13 00:10:28;;;;;;;19.97;14.47;;;;;;;;;;4342592;32;319477;-70
2024/03/13 00:12:55;;;;;;;23.90;14.47;;;;;;;;;;4352131;32;319580;-72
2024/03/13 00:15:22;;;;;;;23.20;14.60;;;;;;;;;;4339936;32;319410;-70
2024/03/13 00:17:48;;;;;;;21.60;13.07;;;;;;;;;;4352132;32;319232;-72
2024/03/13 00:20:16;;;;;;;21.57;14.53;;;;;;;;;;4341233;32;319198;-73
2024/03/13 00:22:44;;;;;;;29.37;16.30;;;;;;;;;;4351505;32;319574;-70
2024/03/13 00:25:12;;;;;;;37.23;20.40;;;;;;;;;;4341232;32;326118;-71
2024/03/13 00:27:41;;;;;;;36.23;18.77;;;;;;;;;;4349097;32;319571;-74
2024/03/13 00:30:09;;;;;;;32.87;19.63;;;;;;;;;;4344315;32;319620;-70
2024/03/13 00:32:37;;;;;;;26.23;17.40;;;;;;;;;;4355093;32;319294;-71
2024/03/13 00:35:06;;;;;;;35.30;20.00;;;;;;;;;;4352568;32;319815;-70
2024/03/13 00:37:34;;;;;;;55.23;30.37;;;;;;;;;;4351806;32;318690;-74
2024/03/13 00:40:01;;;;;;;52.83;27.50;;;;;;;;;;4355007;32;319803;-70
2024/03/13 00:42:29;;;;;;;45.07;25.70;;;;;;;;;;4345093;32;318561;-70
2024/03/13 00:44:56;;;;;;;58.03;33.47;;;;;;;;;;4353619;32;318863;-70
2024/03/13 00:47:23;;;;;;;46.83;27.37;;;;;;;;;;4342667;32;319748;-70
2024/03/13 00:49:50;;;;;;;23.57;16.00;;;;;;;;;;4355333;32;319338;-71
2024/03/13 00:52:17;;;;;;;23.50;14.40;;;;;;;;;;4344236;32;341659;-71
2024/03/13 00:54:45;;;;;;;21.43;15.17;;;;;;;;;;4355660;32;318706;-69
2024/03/13 00:57:12;;;;;;;16.10;9.47;;;;;;;;;;4346223;32;319351;-70
2024/03/13 00:59:40;;;;;;;15.00;9.87;;;;;;;;;;4352438;32;318438;-72
2024/03/13 01:02:08;;;;;;;14.40;8.33;;;;;;;;;;4343781;32;317965;-70
2024/03/13 01:04:35;;;;;;;12.60;8.03;;;;;;;;;;4353836;32;348304;-71
2024/03/13 01:07:02;;;;;;;10.57;6.73;;;;;;;;;;4354982;32;318287;-70
2024/03/13 01:09:32;;;;;;;10.63;5.80;;;;;;;;;;4339845;32;384351;-72
2024/03/13 01:11:59;;;;;;;6.60;4.73;;;;;;;;;;4354903;32;317790;-71
2024/03/13 01:14:27;;;;;;;7.13;4.70;;;;;;;;;;4344521;32;317240;-70
2024/03/13 01:16:58;;;;;;;6.30;4.70;;;;;;;;;;4353560;32;317249;-70
2024/03/13 01:19:30;;;;;;;10.33;5.20;;;;;;;;;;4342975;32;317491;-70
2024/03/13 01:22:03;;;;;;;7.80;5.00;;;;;;;;;;4353587;32;318146;-70
2024/03/13 01:24:31;;;;;;;10.00;5.60;;;;;;;;;;4342206;32;416901;-71
2024/03/13 01:26:58;;;;;;;6.13;4.67;;;;;;;;;;4353508;32;318429;-74
2024/03/13 01:29:26;;;;;;;5.93;4.87;;;;;;;;;;4341218;32;317241;-70
2024/03/13 01:31:52;;;;;;;8.00;5.83;;;;;;;;;;4353204;32;317646;-70
2024/03/13 01:34:21;;;;;;;8.33;5.47;;;;;;;;;;4344681;32;317182;-70
2024/03/13 01:39:32;;;;;;;8.50;6.43;;;;;;;;;;4319584;32;388180;-70
2024/03/13 01:56:21;;;;;;;10.77;8.10;;;;;;;;;;4348671;32;318331;-71
2024/03/13 01:58:51;;;;;;;12.60;8.20;;;;;;;;;;4354009;32;318305;-70
2024/03/13 02:04:05;;;;;;;11.07;8.00;;;;;;;;;;4343770;32;317964;-70
2024/03/13 02:06:33;;;;;;;10.77;8.43;;;;;;;;;;4353694;32;317809;-72
2024/03/13 02:09:00;;;;;;;9.83;7.70;;;;;;;;;;4352915;32;317757;-70
2024/03/13 02:11:27;;;;;;;8.43;7.53;;;;;;;;;;4340187;32;316771;-70
2024/03/13 02:13:55;;;;;;;12.00;8.00;;;;;;;;;;4354175;32;316767;-71
2024/03/13 02:16:22;;;;;;;13.77;8.73;;;;;;;;;;4343317;32;317646;-70
2024/03/13 02:18:50;;;;;;;12.27;9.23;;;;;;;;;;4353312;32;321537;-70
2024/03/13 02:21:18;;;;;;;14.03;10.27;;;;;;;;;;4342458;32;318481;-71
2024/03/13 02:23:45;;;;;;;19.93;11.83;;;;;;;;;;4352553;32;319393;-70
2024/03/13 02:26:11;;;;;;;18.00;12.60;;;;;;;;;;4341211;32;319544;-70
2024/03/13 02:28:38;;;;;;;14.27;10.73;;;;;;;;;;4351585;32;319295;-70
2024/03/13 02:31:06;;;;;;;13.13;11.17;;;;;;;;;;4342828;32;319287;-71
2024/03/13 02:33:33;;;;;;;12.93;10.80;;;;;;;;;;4350271;32;318759;-70
2024/03/13 02:36:01;;;;;;;19.27;14.37;;;;;;;;;;4339842;32;319504;-72
2024/03/13 02:38:28;;;;;;;25.23;14.23;;;;;;;;;;4342462;32;319590;-71
2024/03/13 02:40:55;;;;;;;23.23;16.70;;;;;;;;;;4351899;32;319438;-72
2024/03/13 02:43:22;;;;;;;22.40;15.80;;;;;;;;;;4341093;32;319637;-71
2024/03/13 02:45:49;;;;;;;27.23;17.03;;;;;;;;;;4353307;32;319390;-72
2024/03/13 02:48:16;;;;;;;22.90;17.13;;;;;;;;;;4342234;32;319523;-72
2024/03/13 02:50:43;;;;;;;25.47;17.70;;;;;;;;;;4352619;32;318703;-70
2024/03/13 02:53:10;;;;;;;25.57;20.43;;;;;;;;;;4343360;32;319732;-70
2024/03/13 02:55:43;;;;;;;31.87;22.30;;;;;;;;;;4349137;32;319218;-73
2024/03/13 02:58:10;;;;;;;34.57;24.50;;;;;;;;;;4343041;32;319456;-71
2024/03/13 03:00:37;;;;;;;35.30;23.57;;;;;;;;;;4353207;32;319508;-69
2024/03/13 03:03:11;;;;;;;37.67;24.67;;;;;;;;;;4353353;32;319602;-70
2024/03/13 03:05:40;;;;;;;37.13;23.07;;;;;;;;;;4337198;32;418463;-70
2024/03/13 03:08:07;;;;;;;38.20;23.93;;;;;;;;;;4342568;32;319647;-70
2024/03/13 03:10:34;;;;;;;36.87;23.07;;;;;;;;;;4353475;32;318709;-71
2024/03/13 03:13:01;;;;;;;34.00;19.97;;;;;;;;;;4353423;32;318711;-72
2024/03/13 03:15:33;;;;;;;30.43;18.43;;;;;;;;;;4339493;32;319292;-70
2024/03/13 03:18:00;;;;;;;26.70;17.43;;;;;;;;;;4353709;32;319499;-70
2024/03/13 03:20:27;;;;;;;31.03;17.53;;;;;;;;;;4342912;32;319227;-71
2024/03/13 03:22:54;;;;;;;25.37;15.67;;;;;;;;;;4352643;32;319650;-72
2024/03/13 03:25:24;;;;;;;26.30;16.87;;;;;;;;;;4340922;32;319413;-70
2024/03/13 03:27:50;;;;;;;26.00;16.87;;;;;;;;;;4351745;32;345220;-72
2024/03/13 03:30:17;;;;;;;24.57;15.63;;;;;;;;;;4341006;32;356720;-70
2024/03/13 03:32:45;;;;;;;25.27;16.13;;;;;;;;;;4352627;32;319276;-71
2024/03/13 03:35:12;;;;;;;22.63;15.03;;;;;;;;;;4341361;32;318960;-69
2024/03/13 03:37:39;;;;;;;21.97;14.67;;;;;;;;;;4349289;32;319194;-70
2024/03/13 03:40:08;;;;;;;20.80;13.30;;;;;;;;;;4341888;32;319459;-69
2024/03/13 03:42:35;;;;;;;19.10;12.90;;;;;;;;;;4351731;32;319511;-69
2024/03/13 03:45:03;;;;;;;17.60;11.40;;;;;;;;;;4351242;32;319275;-69
2024/03/13 03:47:30;;;;;;;15.40;10.93;;;;;;;;;;4335953;32;418628;-70
2024/03/13 03:49:57;;;;;;;16.17;11.40;;;;;;;;;;4352771;32;318607;-69
2024/03/13 03:52:24;;;;;;;16.30;10.93;;;;;;;;;;4341513;32;319308;-69
2024/03/13 03:54:51;;;;;;;17.67;12.03;;;;;;;;;;4351552;32;319438;-70
2024/03/13 03:57:19;;;;;;;17.07;11.57;;;;;;;;;;4339503;32;318915;-71
2024/03/13 03:59:46;;;;;;;14.90;10.90;;;;;;;;;;4352450;32;318670;-69
2024/03/13 04:02:16;;;;;;;13.30;9.77;;;;;;;;;;4342828;32;319292;-71
2024/03/13 04:04:43;;;;;;;13.20;9.07;;;;;;;;;;4351649;32;318204;-69
2024/03/13 04:07:11;;;;;;;11.80;8.63;;;;;;;;;;4340202;32;321479;-69
2024/03/13 04:09:37;;;;;;;14.23;9.37;;;;;;;;;;4348733;32;338479;-68
2024/03/13 04:12:04;;;;;;;13.10;9.43;;;;;;;;;;4352333;32;318285;-69
2024/03/13 04:14:31;;;;;;;11.00;8.67;;;;;;;;;;4340124;32;417364;-72
2024/03/13 04:16:58;;;;;;;13.63;9.53;;;;;;;;;;4352721;32;318779;-68
2024/03/13 04:19:25;;;;;;;15.77;8.87;;;;;;;;;;4339032;32;318467;-69
2024/03/13 04:21:52;;;;;;;14.10;9.83;;;;;;;;;;4351512;32;318666;-69
2024/03/13 04:24:19;;;;;;;13.67;10.00;;;;;;;;;;4341769;32;318160;-69
2024/03/13 04:26:46;;;;;;;13.37;9.83;;;;;;;;;;4351096;32;319151;-68
2024/03/13 04:29:13;;;;;;;11.90;9.10;;;;;;;;;;4341142;32;318603;-68
2024/03/13 04:31:40;;;;;;;12.43;9.20;;;;;;;;;;4348654;32;318251;-69
2024/03/13 04:34:08;;;;;;;10.70;8.47;;;;;;;;;;4338632;32;344198;-70
2024/03/13 04:36:38;;;;;;;12.37;8.93;;;;;;;;;;4351638;32;322921;-71
2024/03/13 04:39:05;;;;;;;12.57;7.63;;;;;;;;;;4346709;32;317438;-73
2024/03/13 04:41:33;;;;;;;13.27;8.87;;;;;;;;;;4349461;32;318201;-70
2024/03/13 04:44:00;;;;;;;12.03;8.97;;;;;;;;;;4351005;32;318134;-69
2024/03/13 04:46:27;;;;;;;13.10;9.83;;;;;;;;;;4341078;32;318400;-71
2024/03/13 04:48:53;;;;;;;27.70;13.83;;;;;;;;;;4351501;32;318188;-69
2024/03/13 04:51:20;;;;;;;22.00;14.37;;;;;;;;;;4339498;32;318733;-70
2024/03/13 04:53:47;;;;;;;23.60;16.20;;;;;;;;;;4351891;32;319157;-69
2024/03/13 04:56:14;;;;;;;32.97;20.40;;;;;;;;;;4341997;32;319580;-69
2024/03/13 04:58:44;;;;;;;38.87;27.43;;;;;;;;;;4350312;32;319325;-74
2024/03/13 05:01:16;;;;;;;32.83;23.30;;;;;;;;;;4340059;32;319200;-71
2024/03/13 05:03:43;;;;;;;30.53;18.83;;;;;;;;;;4349139;32;318916;-70
2024/03/13 05:06:10;;;;;;;26.33;15.57;;;;;;;;;;4341900;32;319254;-70
2024/03/13 05:08:37;;;;;;;20.30;12.80;;;;;;;;;;4350984;32;318881;-70
2024/03/13 05:11:04;;;;;;;21.37;14.60;;;;;;;;;;4350697;32;319663;-70
2024/03/13 05:13:31;;;;;;;21.77;14.50;;;;;;;;;;4336472;32;418492;-70
2024/03/13 05:15:58;;;;;;;18.40;13.17;;;;;;;;;;4353762;32;318802;-70
2024/03/13 05:18:25;;;;;;;17.83;13.80;;;;;;;;;;4344531;32;319342;-69
2024/03/13 05:20:52;;;;;;;17.30;12.03;;;;;;;;;;4354471;32;319555;-69
2024/03/13 05:23:20;;;;;;;18.73;12.60;;;;;;;;;;4341471;32;319250;-70
2024/03/13 05:25:50;;;;;;;20.70;14.37;;;;;;;;;;4354324;32;319430;-70
2024/03/13 05:28:21;;;;;;;14.40;10.30;;;;;;;;;;4344311;32;319332;-70
2024/03/13 05:30:48;;;;;;;14.80;12.27;;;;;;;;;;4352925;32;319298;-70
2024/03/13 05:33:15;;;;;;;19.60;13.20;;;;;;;;;;4344044;32;319219;-70
2024/03/13 05:35:42;;;;;;;25.73;18.90;;;;;;;;;;4352539;32;318971;-70
2024/03/13 05:38:08;;;;;;;15.70;10.97;;;;;;;;;;4343598;32;348442;-72
2024/03/13 05:40:35;;;;;;;9.10;6.43;;;;;;;;;;4353438;32;319361;-70
2024/03/13 05:43:02;;;;;;;4.63;3.27;;;;;;;;;;4353505;32;317103;-70
2024/03/13 05:45:29;;;;;;;3.97;3.23;;;;;;;;;;4340494;32;317138;-70
2024/03/13 05:47:56;;;;;;;5.97;3.13;;;;;;;;;;4351854;32;316597;-71
2024/03/13 05:50:23;;;;;;;4.50;3.40;;;;;;;;;;4343634;32;317073;-68
2024/03/13 05:52:50;;;;;;;7.40;3.60;;;;;;;;;;4352527;32;316493;-69
2024/03/13 05:55:17;;;;;;;3.30;2.47;;;;;;;;;;4342204;32;316696;-71
2024/03/13 05:57:44;;;;;;;4.00;2.60;;;;;;;;;;4351059;32;317390;-68
2024/03/13 06:00:13;;;;;;;5.00;3.63;;;;;;;;;;4344130;32;317199;-68
2024/03/13 06:02:40;;;;;;;16.70;7.03;;;;;;;;;;4353671;32;317406;-68
2024/03/13 06:05:11;;;;;;;28.67;12.33;;;;;;;;;;4341789;32;318067;-68
2024/03/13 06:07:38;;;;;;;19.47;10.67;;;;;;;;;;4349533;32;318527;-68
2024/03/13 06:10:06;;;;;;;18.65;12.98;;;;;;;;;;4348990;32;319261;-70
2024/03/13 06:12:34;;;;;;;25.13;13.50;;;;;;;;;;4353416;32;318787;-68
2024/03/13 06:15:06;;;;;;;13.93;7.17;;;;;;;;;;4352147;32;318880;-67
2024/03/13 06:17:33;;;;;;;36.53;18.00;;;;;;;;;;4337374;32;417006;-69
2024/03/13 06:20:00;;;;;;;29.27;17.13;;;;;;;;;;4352453;32;318915;-67
2024/03/13 06:22:27;;;;;;;19.03;11.60;;;;;;;;;;4341759;32;341151;-68
2024/03/13 06:24:55;;;;;;;15.23;10.33;;;;;;;;;;4351074;32;319324;-68
2024/03/13 06:27:27;;;;;;;15.83;9.07;;;;;;;;;;4339912;32;318544;-68
2024/03/13 06:29:57;;;;;;;7.63;6.00;;;;;;;;;;4352233;32;318214;-67
2024/03/13 06:32:25;;;;;;;9.67;7.87;;;;;;;;;;4341700;32;333891;-68
2024/03/13 06:34:53;;;;;;;7.83;5.70;;;;;;;;;;4352941;32;316534;-67
2024/03/13 06:37:21;;;;;;;12.40;5.67;;;;;;;;;;4340122;32;317382;-67
2024/03/13 06:39:48;;;;;;;25.27;11.13;;;;;;;;;;4353271;32;318187;-67
2024/03/13 06:42:15;;;;;;;18.90;9.50;;;;;;;;;;4342650;32;319380;-69
2024/03/13 06:44:43;;;;;;;17.17;7.87;;;;;;;;;;4352638;32;317442;-69
2024/03/13 06:47:11;;;;;;;10.73;6.67;;;;;;;;;;4343009;32;318302;-66
2024/03/13 06:49:38;;;;;;;21.57;11.23;;;;;;;;;;4350717;32;318308;-67
2024/03/13 06:52:05;;;;;;;17.37;7.50;;;;;;;;;;4352486;32;318236;-66
2024/03/13 06:54:31;;;;;;;14.97;6.30;;;;;;;;;;4340456;32;417723;-69
2024/03/13 06:56:58;;;;;;;22.83;10.10;;;;;;;;;;4352921;32;318226;-68
2024/03/13 06:59:25;;;;;;;12.77;7.17;;;;;;;;;;4338845;32;319438;-66
2024/03/13 07:01:55;;;;;;;10.50;6.60;;;;;;;;;;4353053;32;318564;-67
2024/03/13 07:04:23;;;;;;;19.03;8.73;;;;;;;;;;4342285;32;319034;-69
2024/03/13 07:06:56;;;;;;;11.27;7.70;;;;;;;;;;4352429;32;318357;-67
2024/03/13 07:09:23;;;;;;;11.43;7.23;;;;;;;;;;4340682;32;318388;-67
2024/03/13 07:11:50;;;;;;;13.73;8.53;;;;;;;;;;4352726;32;318688;-67
2024/03/13 07:14:17;;;;;;;9.67;6.70;;;;;;;;;;4342274;32;318338;-67
2024/03/13 07:16:44;;;;;;;8.63;5.50;;;;;;;;;;4351421;32;316509;-67
2024/03/13 07:19:11;;;;;;;8.83;6.63;;;;;;;;;;4341456;32;317618;-68
2024/03/13 07:21:38;;;;;;;9.47;6.90;;;;;;;;;;4349036;32;317416;-69
2024/03/13 07:24:05;;;;;;;15.50;9.33;;;;;;;;;;4352344;32;336661;-66
2024/03/13 07:26:33;;;;;;;14.50;9.03;;;;;;;;;;4339257;32;417811;-67
2024/03/13 07:28:59;;;;;;;17.23;11.40;;;;;;;;;;4352789;32;318705;-66
2024/03/13 07:31:26;;;;;;;18.37;11.13;;;;;;;;;;4339661;32;318857;-67
2024/03/13 07:33:53;;;;;;;18.43;11.53;;;;;;;;;;4350445;32;319175;-67
2024/03/13 07:36:21;;;;;;;20.10;13.37;;;;;;;;;;4340256;32;336699;-67
2024/03/13 07:38:48;;;;;;;12.23;9.33;;;;;;;;;;4352179;32;318675;-66
2024/03/13 07:41:14;;;;;;;15.03;9.70;;;;;;;;;;4342491;32;318325;-67
2024/03/13 07:43:41;;;;;;;13.70;9.90;;;;;;;;;;4350383;32;318321;-66
2024/03/13 07:46:09;;;;;;;11.83;9.00;;;;;;;;;;4337266;32;318130;-66
2024/03/13 07:48:36;;;;;;;11.37;9.77;;;;;;;;;;4352019;32;318418;-66
2024/03/13 07:51:03;;;;;;;14.70;10.80;;;;;;;;;;4341603;32;318700;-67
2024/03/13 07:53:31;;;;;;;19.37;12.47;;;;;;;;;;4351590;32;318453;-66
2024/03/13 07:55:58;;;;;;;18.57;13.00;;;;;;;;;;4341851;32;319243;-67
2024/03/13 07:58:25;;;;;;;20.23;13.97;;;;;;;;;;4349507;32;319233;-67
2024/03/13 08:00:52;;;;;;;22.20;17.23;;;;;;;;;;4342107;32;319472;-67
2024/03/13 08:03:20;;;;;;;24.10;16.30;;;;;;;;;;4351617;32;319342;-67
2024/03/13 08:05:47;;;;;;;18.73;13.20;;;;;;;;;;4350444;32;319497;-70
2024/03/13 08:08:14;;;;;;;15.37;11.10;;;;;;;;;;4339685;32;320011;-66
2024/03/13 08:10:41;;;;;;;16.77;12.07;;;;;;;;;;4351764;32;318703;-68
2024/03/13 08:13:08;;;;;;;20.53;14.70;;;;;;;;;;4340942;32;318550;-66
2024/03/13 08:15:35;;;;;;;21.23;16.87;;;;;;;;;;4351864;32;319251;-67
2024/03/13 08:18:02;;;;;;;23.57;16.50;;;;;;;;;;4341168;32;319416;-67
2024/03/13 08:20:29;;;;;;;23.03;18.50;;;;;;;;;;4350789;32;319788;-67
2024/03/13 08:22:55;;;;;;;20.17;16.17;;;;;;;;;;4340245;32;319427;-67
2024/03/13 08:25:22;;;;;;;22.10;16.73;;;;;;;;;;4351514;32;325027;-69
2024/03/13 08:27:49;;;;;;;22.97;18.03;;;;;;;;;;4351513;32;319013;-67
2024/03/13 08:30:18;;;;;;;23.93;18.43;;;;;;;;;;4336528;32;420204;-67
2024/03/13 08:32:44;;;;;;;24.10;18.33;;;;;;;;;;4349641;32;337494;-66
2024/03/13 08:35:13;;;;;;;23.83;18.63;;;;;;;;;;4341871;32;319009;-70
2024/03/13 08:37:41;;;;;;;23.87;17.83;;;;;;;;;;4350530;32;318963;-69
2024/03/13 08:40:11;;;;;;;23.20;18.63;;;;;;;;;;4339423;32;319137;-66
2024/03/13 08:42:39;;;;;;;25.37;20.33;;;;;;;;;;4351331;32;319270;-66
2024/03/13 08:45:08;;;;;;;28.20;17.37;;;;;;;;;;4341202;32;319330;-65
2024/03/13 08:47:35;;;;;;;23.63;17.10;;;;;;;;;;4350169;32;319402;-66
2024/03/13 08:50:03;;;;;;;26.47;16.40;;;;;;;;;;4342256;32;319926;-67
2024/03/13 08:52:30;;;;;;;36.73;25.83;;;;;;;;;;4354348;32;318752;-69
2024/03/13 08:54:57;;;;;;;26.57;16.40;;;;;;;;;;4342328;32;318515;-66
2024/03/13 08:57:24;;;;;;;16.20;13.37;;;;;;;;;;4353631;32;319297;-68
2024/03/13 08:59:51;;;;;;;24.00;14.43;;;;;;;;;;4344445;32;319483;-69
2024/03/13 09:02:18;;;;;;;12.37;10.70;;;;;;;;;;4351059;32;319567;-66
2024/03/13 09:04:45;;;;;;;13.70;10.43;;;;;;;;;;4351767;32;354909;-66
2024/03/13 09:07:12;;;;;;;14.60;11.50;;;;;;;;;;4344776;32;319686;-65
2024/03/13 09:09:39;;;;;;;12.77;9.93;;;;;;;;;;4354670;32;318812;-66
2024/03/13 09:12:07;;;;;;;12.07;9.63;;;;;;;;;;4341806;32;318780;-66
2024/03/13 09:14:36;;;;;;;13.77;10.83;;;;;;;;;;4353951;32;331313;-66
2024/03/13 09:17:05;;;;;;;14.87;10.87;;;;;;;;;;4342373;32;354529;-67
2024/03/13 09:19:33;;;;;;;15.43;11.03;;;;;;;;;;4352958;32;319453;-68
2024/03/13 09:22:00;;;;;;;16.73;10.67;;;;;;;;;;4344066;32;319196;-67
2024/03/13 09:24:27;;;;;;;12.53;10.03;;;;;;;;;;4352759;32;319977;-66
2024/03/13 09:26:56;;;;;;;12.23;10.27;;;;;;;;;;4342964;32;319152;-66
2024/03/13 09:29:23;;;;;;;15.07;12.27;;;;;;;;;;4354395;32;318637;-66
2024/03/13 09:31:50;;;;;;;14.47;11.00;;;;;;;;;;4344274;32;319643;-69
2024/03/13 09:34:17;;;;;;;13.93;10.77;;;;;;;;;;4350312;32;319361;-68
2024/03/13 09:36:44;;;;;;;14.23;11.83;;;;;;;;;;4353259;32;319380;-65
2024/03/13 09:39:11;;;;;;;14.87;10.40;;;;;;;;;;4341524;32;319372;-68
2024/03/13 09:41:38;;;;;;;15.63;10.77;;;;;;;;;;4353493;32;319213;-66
2024/03/13 09:44:06;;;;;;;13.23;10.83;;;;;;;;;;4341245;32;319503;-66
2024/03/13 09:46:33;;;;;;;13.77;9.30;;;;;;;;;;4351722;32;319333;-68
2024/03/13 09:49:01;;;;;;;14.53;11.60;;;;;;;;;;4342772;32;318363;-66
2024/03/13 09:51:28;;;;;;;15.03;10.80;;;;;;;;;;4352532;32;319247;-68
2024/03/13 09:53:55;;;;;;;11.97;10.53;;;;;;;;;;4343284;32;319314;-65
2024/03/13 09:56:21;;;;;;;12.17;9.17;;;;;;;;;;4350309;32;319572;-65
2024/03/13 09:58:50;;;;;;;13.33;9.97;;;;;;;;;;4353638;32;318628;-69
2024/03/13 10:01:18;;;;;;;11.60;9.43;;;;;;;;;;4332779;32;419153;-68
2024/03/13 10:03:45;;;;;;;11.77;8.87;;;;;;;;;;4351373;32;317593;-69
2024/03/13 10:06:12;;;;;;;12.70;9.13;;;;;;;;;;4340720;32;318658;-66
2024/03/13 10:08:40;;;;;;;9.10;7.43;;;;;;;;;;4353525;32;318689;-66
2024/03/13 10:11:07;;;;;;;12.27;8.43;;;;;;;;;;4344002;32;317390;-65
2024/03/13 10:13:35;;;;;;;10.67;8.57;;;;;;;;;;4353568;32;318249;-65
2024/03/13 10:16:02;;;;;;;11.33;8.97;;;;;;;;;;4342309;32;318429;-70
2024/03/13 10:18:31;;;;;;;9.33;7.33;;;;;;;;;;4351093;32;318399;-66
2024/03/13 10:20:58;;;;;;;12.77;7.93;;;;;;;;;;4343877;32;317386;-67
2024/03/13 10:23:25;;;;;;;13.50;7.77;;;;;;;;;;4353318;32;318197;-65
2024/03/13 10:25:52;;;;;;;11.70;8.20;;;;;;;;;;4342137;32;318875;-66
2024/03/13 10:28:23;;;;;;;14.20;7.57;;;;;;;;;;4350111;32;318559;-66
2024/03/13 10:30:51;;;;;;;12.13;8.20;;;;;;;;;;4343475;32;318378;-69
2024/03/13 10:33:18;;;;;;;8.63;6.53;;;;;;;;;;4351974;32;318411;-66
2024/03/13 10:35:45;;;;;;;15.73;8.53;;;;;;;;;;4353721;32;317458;-66
2024/03/13 10:38:12;;;;;;;13.83;9.93;;;;;;;;;;4340400;32;318466;-67
2024/03/13 10:40:40;;;;;;;9.63;7.73;;;;;;;;;;4353164;32;318076;-68
2024/03/13 10:43:09;;;;;;;11.23;8.57;;;;;;;;;;4343379;32;317399;-65
2024/03/13 10:45:36;;;;;;;19.90;10.87;;;;;;;;;;4342975;32;317738;-67
2024/03/13 10:48:06;;;;;;;11.60;8.67;;;;;;;;;;4341309;32;319553;-66
2024/03/13 10:50:33;;;;;;;12.67;7.67;;;;;;;;;;4351771;32;360173;-65
2024/03/13 10:53:02;;;;;;;11.20;7.07;;;;;;;;;;4342781;32;318476;-66
2024/03/13 10:55:28;;;;;;;9.40;6.87;;;;;;;;;;4352521;32;317967;-65
2024/03/13 10:57:55;;;;;;;15.40;8.50;;;;;;;;;;4342944;32;317629;-67
2024/03/13 11:00:22;;;;;;;12.17;7.57;;;;;;;;;;4348902;32;318300;-69
2024/03/13 11:02:50;;;;;;;19.90;8.00;;;;;;;;;;4352394;32;317724;-66
2024/03/13 11:05:17;;;;;;;13.03;8.70;;;;;;;;;;4339024;32;417733;-68
2024/03/13 11:07:44;;;;;;;15.53;8.17;;;;;;;;;;4350685;32;337545;-66
2024/03/13 11:10:13;;;;;;;10.30;7.50;;;;;;;;;;4340523;32;318515;-66
2024/03/13 11:12:40;;;;;;;9.10;7.53;;;;;;;;;;4351655;32;345184;-66
2024/03/13 11:15:07;;;;;;;18.20;8.60;;;;;;;;;;4342125;32;317489;-67
2024/03/13 11:17:34;;;;;;;16.30;8.97;;;;;;;;;;4351981;32;318224;-67
2024/03/13 11:20:05;;;;;;;14.00;7.73;;;;;;;;;;4340783;32;318381;-69
2024/03/13 11:22:31;;;;;;;9.80;7.97;;;;;;;;;;4352463;32;318323;-66
2024/03/13 11:25:00;;;;;;;13.87;9.97;;;;;;;;;;4343069;32;317555;-67
2024/03/13 11:27:26;;;;;;;17.23;10.40;;;;;;;;;;4351528;32;317561;-67
2024/03/13 11:29:53;;;;;;;17.30;10.53;;;;;;;;;;4341942;32;319774;-68
2024/03/13 11:32:20;;;;;;;25.07;11.90;;;;;;;;;;4350067;32;319277;-66
2024/03/13 11:34:48;;;;;;;22.57;11.93;;;;;;;;;;4351239;32;319327;-66
2024/03/13 11:37:16;;;;;;;17.43;10.93;;;;;;;;;;4338177;32;418197;-67
2024/03/13 11:39:43;;;;;;;13.17;9.10;;;;;;;;;;4352060;32;327563;-69
2024/03/13 11:42:13;;;;;;;6.82;5.25;;;;;;;;;;4339827;32;343489;-67
2024/03/13 11:44:42;;;;;;;4.40;3.23;;;;;;;;;;4351103;32;328197;-67
2024/03/13 11:47:11;;;;;;;3.77;3.03;;;;;;;;;;4341999;32;352919;-67
2024/03/13 11:49:38;;;;;;;5.20;3.83;;;;;;;;;;4351980;32;316973;-67
2024/03/13 11:52:11;;;;;;;2.80;2.50;;;;;;;;;;4341712;32;317158;-72
2024/03/13 11:54:39;;;;;;;4.03;2.47;;;;;;;;;;4351427;32;317213;-69
2024/03/13 11:57:06;;;;;;;10.33;5.97;;;;;;;;;;4341554;32;316599;-69
2024/03/13 11:59:40;;;;;;;9.90;4.90;;;;;;;;;;4350714;32;318241;-68
2024/03/13 12:02:06;;;;;;;6.07;4.17;;;;;;;;;;4338678;32;317283;-69
2024/03/13 12:04:36;;;;;;;3.23;2.50;;;;;;;;;;4351677;32;317655;-69
2024/03/13 12:07:04;;;;;;;5.70;3.50;;;;;;;;;;4342142;32;317198;-69
2024/03/13 12:09:30;;;;;;;10.67;5.70;;;;;;;;;;4352142;32;317068;-69
2024/03/13 12:11:59;;;;;;;10.13;4.93;;;;;;;;;;4342500;32;318372;-69
2024/03/13 12:14:26;;;;;;;17.73;8.20;;;;;;;;;;4351909;32;318480;-69
2024/03/13 12:16:53;;;;;;;12.67;7.40;;;;;;;;;;4338319;32;318984;-71
2024/03/13 12:19:19;;;;;;;12.53;7.10;;;;;;;;;;4351884;32;317943;-70
2024/03/13 12:21:46;;;;;;;6.27;4.43;;;;;;;;;;4351946;32;318372;-71
2024/03/13 12:24:13;;;;;;;8.27;5.97;;;;;;;;;;4338751;32;317624;-72
2024/03/13 12:26:40;;;;;;;5.20;3.33;;;;;;;;;;4349717;32;316666;-69
2024/03/13 12:29:06;;;;;;;4.87;3.57;;;;;;;;;;4341827;32;333285;-70
2024/03/13 12:31:33;;;;;;;7.50;4.00;;;;;;;;;;4350182;32;317465;-69
2024/03/13 12:34:00;;;;;;;4.30;2.73;;;;;;;;;;4341981;32;317247;-69
2024/03/13 12:36:28;;;;;;;2.13;1.87;;;;;;;;;;4351852;32;317171;-69
2024/03/13 12:38:55;;;;;;;2.93;2.23;;;;;;;;;;4341131;32;317048;-69
2024/03/13 12:41:21;;;;;;;1.70;1.60;;;;;;;;;;4351540;32;317089;-69
2024/03/13 12:43:48;;;;;;;3.00;1.60;;;;;;;;;;4352335;32;317399;-69
2024/03/13 12:46:15;;;;;;;2.63;2.40;;;;;;;;;;4336125;32;417930;-68
2024/03/13 12:48:42;;;;;;;6.57;4.40;;;;;;;;;;4351274;32;316773;-69
2024/03/13 12:51:09;;;;;;;8.07;6.10;;;;;;;;;;4340486;32;317162;-69
2024/03/13 12:53:37;;;;;;;6.23;4.17;;;;;;;;;;4350817;32;317307;-69
2024/03/13 12:56:08;;;;;;;15.07;9.07;;;;;;;;;;4338884;32;317417;-70
2024/03/13 12:58:34;;;;;;;10.13;4.50;;;;;;;;;;4351971;32;318539;-70
2024/03/13 13:01:02;;;;;;;4.10;1.90;;;;;;;;;;4341655;32;317919;-70
2024/03/13 13:03:29;;;;;;;5.73;3.13;;;;;;;;;;4351949;32;316414;-73
2024/03/13 13:05:56;;;;;;;6.43;4.23;;;;;;;;;;4341171;32;316677;-70
2024/03/13 13:08:25;;;;;;;2.50;2.13;;;;;;;;;;4349566;32;340051;-70
2024/03/13 13:10:51;;;;;;;4.53;2.90;;;;;;;;;;4342022;32;317369;-73
2024/03/13 13:13:18;;;;;;;3.20;2.40;;;;;;;;;;4351340;32;316753;-70
2024/03/13 13:15:45;;;;;;;7.63;7.03;;;;;;;;;;4350557;32;317152;-70
2024/03/13 13:18:13;;;;;;;4.83;3.33;;;;;;;;;;4338625;32;317642;-70
2024/03/13 13:20:40;;;;;;;8.90;1.90;;;;;;;;;;4350605;32;316959;-71
2024/03/13 13:23:09;;;;;;;3.93;3.07;;;;;;;;;;4340599;32;317220;-69
2024/03/13 13:25:37;;;;;;;2.40;1.50;;;;;;;;;;4350380;32;317189;-70
2024/03/13 13:28:04;;;;;;;2.67;1.80;;;;;;;;;;4338491;32;317361;-70
2024/03/13 13:30:34;;;;;;;2.30;1.93;;;;;;;;;;4351728;32;317267;-69
2024/03/13 13:33:02;;;;;;;4.50;2.90;;;;;;;;;;4340119;32;324506;-69
2024/03/13 13:35:29;;;;;;;3.87;2.60;;;;;;;;;;4354260;32;317311;-70
2024/03/13 13:37:58;;;;;;;4.30;2.70;;;;;;;;;;4343360;32;317110;-69
2024/03/13 13:40:25;;;;;;;6.50;4.13;;;;;;;;;;4352061;32;317203;-71
2024/03/13 13:42:54;;;;;;;3.70;2.57;;;;;;;;;;4344067;32;317116;-70
2024/03/13 13:45:22;;;;;;;5.47;3.80;;;;;;;;;;4351912;32;347152;-70
2024/03/13 13:47:51;;;;;;;6.27;3.53;;;;;;;;;;4353230;32;317162;-70
2024/03/13 13:50:18;;;;;;;6.17;3.20;;;;;;;;;;4339039;32;418144;-69
2024/03/13 13:52:45;;;;;;;5.70;3.97;;;;;;;;;;4352783;32;317369;-69
2024/03/13 13:55:12;;;;;;;10.40;5.00;;;;;;;;;;4341499;32;334241;-69
2024/03/13 13:57:39;;;;;;;8.23;5.07;;;;;;;;;;4352733;32;318521;-70
2024/03/13 14:00:09;;;;;;;7.30;2.67;;;;;;;;;;4341901;32;317226;-69
2024/03/13 14:02:36;;;;;;;7.83;3.67;;;;;;;;;;4353341;32;316281;-69
2024/03/13 14:05:05;;;;;;;7.53;4.30;;;;;;;;;;4344121;32;317310;-70
2024/03/13 14:07:34;;;;;;;6.17;4.57;;;;;;;;;;4353054;32;317300;-70
2024/03/13 14:10:00;;;;;;;10.50;6.57;;;;;;;;;;4344358;32;317378;-68
2024/03/13 14:12:32;;;;;;;9.50;6.30;;;;;;;;;;4352932;32;318413;-68
2024/03/13 14:14:59;;;;;;;3.77;3.07;;;;;;;;;;4343293;32;317335;-70
2024/03/13 14:17:28;;;;;;;3.23;1.80;;;;;;;;;;4352886;32;317154;-70
2024/03/13 14:19:55;;;;;;;2.10;1.60;;;;;;;;;;4343929;32;316533;-70
2024/03/13 14:22:25;;;;;;;11.03;6.40;;;;;;;;;;4351567;32;317202;-71
2024/03/13 14:24:54;;;;;;;7.33;4.97;;;;;;;;;;4343169;32;318359;-70
2024/03/13 14:27:21;;;;;;;10.77;4.43;;;;;;;;;;4352922;32;317359;-71
2024/03/13 14:29:50;;;;;;;5.90;3.40;;;;;;;;;;4352802;32;318278;-70
2024/03/13 14:32:17;;;;;;;2.70;2.40;;;;;;;;;;4338218;32;416289;-69
2024/03/13 14:34:44;;;;;;;7.77;2.67;;;;;;;;;;4352318;32;317498;-69